Time;durP1;ratioP1;P1;durP2;ratioP2;P2;SDS_P1;SDS_P2;PMS_P1;PMS_P2;Temp;Humidity;BMP_temperature;BMP_pressure;BME280_temperature;BME280_humidity;BME280_pressure;Samples;Min_cycle;Max_cycle;Signal;HPM_P1;HPM_P2
2022/03/12 00:01:53;;;;;;;;;;;9.80;51.90;;;8.54;30.12;101088.59;2569682;30;136873;-42
2022/03/12 00:04:21;;;;;;;;;;;9.80;51.60;;;8.53;31.45;101085.00;2568517;30;137160;-41
2022/03/12 00:06:49;;;;;;;;;;;9.80;53.10;;;8.54;31.68;101083.16;2565197;30;137027;-41
2022/03/12 00:09:16;;;;;;;;;;;9.80;53.10;;;8.51;30.04;101092.53;2568175;30;138041;-41
2022/03/12 00:11:51;;;;;;;;;;;9.80;51.40;;;8.47;31.19;101092.03;2567994;30;137911;-41
2022/03/12 00:14:22;;;;;;;;;;;9.80;52.50;;;8.44;31.02;101086.97;2568626;30;138366;-41
2022/03/12 00:16:54;;;;;;;;;;;9.80;52.60;;;8.47;31.38;101083.03;2568392;30;137058;-41
2022/03/12 00:19:24;;;;;;;;;;;9.80;53.00;;;8.45;30.83;101080.50;2568704;30;137270;-42
2022/03/12 00:21:52;;;;;;;;;;;9.80;52.50;;;8.42;31.40;101089.03;2569401;30;136777;-42
2022/03/12 00:24:19;;;;;;;;;;;9.70;52.70;;;8.41;30.76;101090.06;2567821;30;138059;-41
2022/03/12 00:26:47;;;;;;;;;;;9.70;52.30;;;8.43;31.08;101087.19;2568596;30;136876;-41
2022/03/12 00:29:16;;;;;;;;;;;9.70;52.40;;;8.41;31.10;101097.41;2569165;30;138229;-41
2022/03/12 00:31:45;;;;;;;;;;;9.70;52.70;;;8.37;30.70;101088.78;2568558;30;137082;-41
2022/03/12 00:34:14;;;;;;;;;;;9.70;52.10;;;8.44;30.96;101086.16;2568190;30;139461;-41
2022/03/12 00:36:42;;;;;;;;;;;9.70;52.30;;;8.38;30.90;101093.19;2569045;30;137813;-41
2022/03/12 00:39:12;;;;;;;;;;;9.70;52.30;;;8.31;31.38;101092.28;2568931;30;138557;-41
2022/03/12 00:41:43;;;;;;;;;;;9.60;52.50;;;8.31;31.40;101089.56;2566723;30;137978;-42
2022/03/12 00:44:13;;;;;;;;;;;9.60;52.60;;;8.23;32.04;101095.94;2568780;30;138079;-41
2022/03/12 00:46:40;;;;;;;;;;;9.60;53.50;;;8.23;30.82;101095.94;2569234;30;137255;-41
2022/03/12 00:49:08;;;;;;;;;;;9.60;52.20;;;8.17;32.29;101092.09;2569065;30;138388;-41
2022/03/12 00:51:38;;;;;;;;;;;9.50;53.60;;;8.10;32.14;101096.59;2567546;30;136708;-41
2022/03/12 00:54:06;;;;;;;;;;;9.40;53.40;;;8.12;32.62;101094.53;2566247;30;138030;-42
2022/03/12 00:56:34;;;;;;;;;;;9.40;54.10;;;8.17;32.04;101097.53;2568373;30;137868;-41
2022/03/12 00:59:01;;;;;;;;;;;9.50;53.50;;;8.15;32.15;101105.03;2568703;30;139060;-41
2022/03/12 01:01:29;;;;;;;;;;;9.40;53.60;;;8.11;32.94;101098.28;2568207;30;136816;-41
2022/03/12 01:03:58;;;;;;;;;;;9.40;54.50;;;8.19;31.84;101106.34;2566282;30;137816;-41
2022/03/12 01:06:25;;;;;;;;;;;9.50;53.70;;;8.21;31.74;101108.88;2568343;30;138193;-42
2022/03/12 01:08:53;;;;;;;;;;;9.50;53.30;;;8.21;33.25;101103.44;2568944;30;138284;-41
2022/03/12 01:11:21;;;;;;;;;;;9.50;54.70;;;8.09;32.66;101113.94;2569107;30;136938;-41
2022/03/12 01:13:48;;;;;;;;;;;9.40;54.00;;;8.04;33.02;101111.78;2568678;30;138002;-41
2022/03/12 01:16:16;;;;;;;;;;;9.40;54.50;;;8.08;32.44;101109.53;2568910;30;137222;-41
2022/03/12 01:18:44;;;;;;;;;;;9.40;53.80;;;8.09;32.11;101118.53;2565814;30;139173;-40
2022/03/12 01:21:16;;;;;;;;;;;9.40;53.70;;;8.05;32.81;101104.50;2574067;30;139924;-39
2022/03/12 01:23:49;;;;;;;;;;;9.40;54.20;;;8.00;32.78;101107.75;2569986;30;138358;-39
2022/03/12 01:26:18;;;;;;;;;;;9.40;54.40;;;8.00;32.78;101109.66;2569017;30;137400;-39
2022/03/12 01:28:46;;;;;;;;;;;9.30;54.20;;;7.92;32.84;101103.25;2569754;30;137977;-40
2022/03/12 01:31:15;;;;;;;;;;;9.30;54.20;;;7.94;32.54;101105.81;2570800;30;137429;-40
2022/03/12 01:33:43;;;;;;;;;;;9.30;54.00;;;7.86;33.03;101111.34;2570421;30;138251;-39
2022/03/12 01:36:11;;;;;;;;;;;9.20;54.40;;;7.81;33.56;101120.03;2568455;30;137115;-40
2022/03/12 01:38:51;;;;;;;;;;;9.20;55.10;;;7.84;33.82;101116.97;2569715;30;138278;-40
2022/03/12 01:41:24;;;;;;;;;;;9.20;55.00;;;7.79;33.86;101111.25;2569728;30;137764;-40
2022/03/12 01:43:53;;;;;;;;;;;9.20;55.80;;;7.80;34.04;101102.06;2571279;30;138947;-41
2022/03/12 01:46:35;;;;;;;;;;;9.10;55.80;;;7.79;34.07;101111.25;2569819;30;137764;-41
2022/03/12 01:49:08;;;;;;;;;;;9.10;55.60;;;7.77;34.25;101116.03;2570829;30;137237;-39
2022/03/12 01:51:41;;;;;;;;;;;9.10;56.20;;;7.71;34.22;101114.06;2568544;30;139081;-40
2022/03/12 01:54:09;;;;;;;;;;;9.10;55.60;;;7.71;34.07;101112.19;2569927;30;138174;-40
2022/03/12 01:56:38;;;;;;;;;;;9.00;55.40;;;7.72;35.05;101113.84;2569665;30;137577;-39
2022/03/12 01:59:06;;;;;;;;;;;9.00;56.70;;;7.79;34.40;101119.41;2569790;30;137081;-40
2022/03/12 02:01:33;;;;;;;;;;;9.10;56.10;;;7.81;34.15;101120.03;2569618;30;137690;-39
2022/03/12 02:04:06;;;;;;;;;;;9.10;55.80;;;7.76;34.92;101120.59;2571128;30;139113;-42
2022/03/12 02:06:35;;;;;;;;;;;9.10;56.60;;;7.71;34.49;101120.31;2569812;30;137994;-39
2022/03/12 02:09:03;;;;;;;;;;;9.10;56.10;;;7.73;34.65;101125.59;2570727;30;138896;-40
2022/03/12 02:11:32;;;;;;;;;;;9.10;56.10;;;7.77;34.85;101119.56;2569365;30;137973;-40
2022/03/12 02:14:07;;;;;;;;;;;9.10;56.60;;;7.79;34.32;101116.69;2570312;30;138334;-40
2022/03/12 02:16:36;;;;;;;;;;;9.10;55.90;;;7.75;35.68;101110.75;2568594;30;137843;-40
2022/03/12 02:19:04;;;;;;;;;;;9.10;57.50;;;7.80;34.80;101122.94;2572466;30;139249;-39
2022/03/12 02:21:40;;;;;;;;;;;9.10;56.50;;;7.79;35.22;101119.41;2568635;30;138006;-40
2022/03/12 02:24:14;;;;;;;;;;;9.10;56.90;;;7.83;35.14;101120.69;2571901;30;138289;-40
2022/03/12 02:26:44;;;;;;;;;;;9.10;56.80;;;7.83;34.94;101126.13;2571566;30;136655;-39
2022/03/12 02:29:20;;;;;;;;;;;9.10;56.80;;;7.84;34.88;101135.97;2569112;30;139062;-39
2022/03/12 02:31:50;;;;;;;;;;;9.10;56.40;;;7.81;35.87;101135.50;2569909;30;137269;-39
2022/03/12 02:34:21;;;;;;;;;;;9.10;57.60;;;7.82;35.12;101135.31;2570570;30;138246;-39
2022/03/12 02:36:51;;;;;;;;;;;9.10;56.90;;;7.81;34.89;101130.91;2571031;30;137018;-39
2022/03/12 02:39:21;;;;;;;;;;;9.10;56.60;;;7.75;35.69;101137.09;2566835;30;138216;-41
2022/03/12 02:41:49;;;;;;;;;;;9.10;57.40;;;7.80;35.85;101145.53;2570628;30;136642;-41
2022/03/12 02:44:21;;;;;;;;;;;9.10;57.60;;;7.76;36.44;101138.78;2568808;30;137548;-40
2022/03/12 02:47:29;;;;;;;;;;;9.10;58.00;;;7.72;36.55;101149.16;2569808;30;137157;-39
2022/03/12 02:50:02;;;;;;;;;;;9.10;58.30;;;7.71;36.25;101147.47;2569642;30;138546;-40
2022/03/12 02:52:31;;;;;;;;;;;9.00;58.20;;;7.64;38.05;101138.41;2566563;30;137905;-39
2022/03/12 02:55:00;;;;;;;;;;;9.00;59.90;;;7.62;36.50;101146.72;2569408;30;138290;-39
2022/03/12 02:57:29;;;;;;;;;;;8.90;58.20;;;7.59;37.04;101144.38;2569011;30;138038;-39
2022/03/12 03:00:03;;;;;;;;;;;8.90;59.30;;;7.61;36.11;101139.59;2569414;30;138494;-39
2022/03/12 03:02:48;;;;;;;;;;;8.90;58.10;;;7.56;36.52;101133.88;2566847;30;137415;-40
2022/03/12 03:05:41;;;;;;;;;;;8.90;58.20;;;7.63;35.99;101132.09;2570472;30;138199;-39
2022/03/12 03:08:12;;;;;;;;;;;8.90;57.90;;;7.62;36.75;101144.00;2570860;30;137128;-40
2022/03/12 03:10:42;;;;;;;;;;;8.90;58.70;;;7.62;36.60;101143.16;2569378;30;137268;-39
2022/03/12 03:13:29;;;;;;;;;;;8.90;58.80;;;7.53;37.46;101139.69;2568199;30;137410;-39
2022/03/12 03:15:59;;;;;;;;;;;8.90;59.20;;;7.49;36.79;101147.34;2569696;30;138206;-39
2022/03/12 03:18:30;;;;;;;;;;;8.80;58.50;;;7.53;36.76;101149.69;2570513;30;136737;-40
2022/03/12 03:20:59;;;;;;;;;;;8.90;58.50;;;7.50;37.06;101145.50;2569841;30;138299;-39
2022/03/12 03:23:30;;;;;;;;;;;8.80;59.00;;;7.43;36.70;101144.53;2570434;30;137024;-40
2022/03/12 03:26:00;;;;;;;;;;;8.80;58.70;;;7.44;37.22;101148.94;2568091;30;137928;-39
2022/03/12 03:28:28;;;;;;;;;;;8.80;59.00;;;7.44;37.58;101165.25;2569089;30;137787;-39
2022/03/12 03:30:55;;;;;;;;;;;8.80;59.20;;;7.43;37.12;101164.38;2569854;30;137278;-39
2022/03/12 03:33:25;;;;;;;;;;;8.80;59.00;;;7.46;37.88;101163.19;2570047;30;137699;-40
2022/03/12 03:35:53;;;;;;;;;;;8.80;59.70;;;7.36;38.39;101160.72;2570189;30;138225;-40
2022/03/12 03:38:20;;;;;;;;;;;8.70;60.10;;;7.36;38.43;101163.44;2566763;30;137084;-41
2022/03/12 03:40:50;;;;;;;;;;;8.70;60.30;;;7.38;38.75;101155.94;2569727;30;138328;-40
2022/03/12 03:43:23;;;;;;;;;;;8.70;60.70;;;7.41;38.12;101162.88;2569200;30;137818;-40
2022/03/12 03:45:54;;;;;;;;;;;8.70;60.00;;;7.42;37.86;101153.69;2570272;30;137407;-40
2022/03/12 03:48:26;;;;;;;;;;;8.70;59.90;;;7.42;38.43;101159.13;2568289;30;136645;-39
2022/03/12 03:50:54;;;;;;;;;;;8.80;60.20;;;7.46;38.23;101163.19;2569034;30;139285;-39
2022/03/12 03:53:25;;;;;;;;;;;8.70;60.40;;;7.46;37.44;101168.63;2570490;30;137155;-41
2022/03/12 03:55:55;;;;;;;;;;;8.80;59.40;;;7.56;37.37;101171.03;2569210;30;138955;-39
2022/03/12 03:58:24;;;;;;;;;;;8.80;59.30;;;7.47;38.57;101179.28;2570633;30;136995;-39
2022/03/12 04:00:57;;;;;;;;;;;8.80;60.20;;;7.43;38.28;101177.13;2569785;30;138214;-40
2022/03/12 04:03:26;;;;;;;;;;;8.80;60.20;;;7.48;38.03;101182.84;2568016;30;136802;-40
2022/03/12 04:05:53;;;;;;;;;;;8.80;60.00;;;7.49;38.15;101181.81;2569115;30;138266;-40
2022/03/12 04:08:21;;;;;;;;;;;8.80;60.10;;;7.53;37.86;101180.41;2569326;30;137082;-39
2022/03/12 04:10:48;;;;;;;;;;;8.80;59.90;;;7.55;38.40;101193.78;2569290;30;139014;-41
2022/03/12 04:13:21;;;;;;;;;;;8.80;60.40;;;7.56;38.30;101193.63;2568634;30;137209;-40
2022/03/12 04:15:51;;;;;;;;;;;8.80;60.60;;;7.60;38.04;101199.53;2568353;30;138181;-39
2022/03/12 04:18:21;;;;;;;;;;;8.90;60.10;;;7.59;38.65;101201.41;2568871;30;136707;-40
2022/03/12 04:20:50;;;;;;;;;;;8.90;60.70;;;7.57;38.96;101200.75;2567741;30;139418;-41
2022/03/12 04:23:25;;;;;;;;;;;8.90;60.80;;;7.52;39.45;101210.47;2570138;30;137110;-40
2022/03/12 04:25:56;;;;;;;;;;;8.80;61.40;;;7.50;39.03;101205.22;2570925;30;138778;-42
2022/03/12 04:28:27;;;;;;;;;;;8.80;61.40;;;7.50;39.69;101202.50;2569216;30;139295;-40
2022/03/12 04:30:54;;;;;;;;;;;8.80;61.50;;;7.53;39.43;101204.00;2567993;30;138270;-40
2022/03/12 04:33:22;;;;;;;;;;;8.80;61.40;;;7.54;40.46;101203.81;2568700;30;137024;-40
2022/03/12 04:35:50;;;;;;;;;;;8.80;62.70;;;7.52;39.20;101203.16;2569617;30;138252;-39
2022/03/12 04:38:17;;;;;;;;;;;8.80;61.40;;;7.49;39.68;101203.53;2569790;30;137257;-40
2022/03/12 04:40:46;;;;;;;;;;;8.80;62.00;;;7.48;39.53;101216.25;2568230;30;139325;-40
2022/03/12 04:43:18;;;;;;;;;;;8.80;61.40;;;7.47;39.55;101206.41;2566340;30;136743;-39
2022/03/12 04:45:47;;;;;;;;;;;8.80;61.70;;;7.49;39.69;101212.50;2569799;30;138229;-39
2022/03/12 04:48:17;;;;;;;;;;;8.80;62.00;;;7.44;39.95;101208.69;2569752;30;138088;-39
2022/03/12 04:50:45;;;;;;;;;;;8.80;61.90;;;7.37;40.54;101211.28;2568746;30;138337;-40
2022/03/12 04:53:12;;;;;;;;;;;8.70;62.90;;;7.43;39.53;101217.84;2569082;30;137833;-40
2022/03/12 04:55:41;;;;;;;;;;;8.80;61.80;;;7.48;40.74;101218.13;2569487;30;136931;-39
2022/03/12 04:58:09;;;;;;;;;;;8.70;62.80;;;7.40;41.27;101213.63;2570722;30;137741;-39
2022/03/12 05:00:41;;;;;;;;;;;8.70;63.30;;;7.41;40.37;101217.16;2570352;30;138318;-40
2022/03/12 05:03:10;;;;;;;;;;;8.70;62.40;;;7.27;40.21;101219.66;2569214;30;136854;-42
2022/03/12 05:05:40;;;;;;;;;;;8.70;62.50;;;7.24;40.88;101224.59;2570414;30;138322;-39
2022/03/12 05:08:14;;;;;;;;;;;8.60;63.00;;;7.12;40.63;101226.88;2570799;30;136999;-40
2022/03/12 05:10:44;;;;;;;;;;;8.50;62.80;;;7.03;41.05;101226.94;2569858;30;138580;-39
2022/03/12 05:13:12;;;;;;;;;;;8.50;63.10;;;6.95;40.95;101227.00;2570291;30;137102;-40
2022/03/12 05:15:40;;;;;;;;;;;8.40;63.10;;;6.87;41.84;101233.28;2569760;30;138274;-40
2022/03/12 05:18:12;;;;;;;;;;;8.30;63.90;;;6.80;41.09;101226.91;2569374;30;136691;-39
2022/03/12 05:20:46;;;;;;;;;;;8.20;63.20;;;6.83;41.79;101233.81;2571389;30;139155;-39
2022/03/12 05:23:15;;;;;;;;;;;8.20;64.10;;;6.70;41.81;101231.69;2570057;30;138325;-40
2022/03/12 05:25:47;;;;;;;;;;;8.10;63.70;;;6.69;41.63;101233.56;2566610;30;138401;-40
2022/03/12 05:28:21;;;;;;;;;;;8.10;64.00;;;6.69;41.73;101235.41;2570697;30;137999;-39
2022/03/12 05:30:49;;;;;;;;;;;8.00;64.30;;;6.59;42.62;101232.91;2570948;30;138097;-40
2022/03/12 05:33:18;;;;;;;;;;;8.00;64.70;;;6.47;43.05;101233.31;2566505;30;137148;-40
2022/03/12 05:35:48;;;;;;;;;;;7.90;65.10;;;6.45;43.08;101239.91;2569115;30;139487;-39
2022/03/12 05:38:16;;;;;;;;;;;7.80;65.50;;;6.40;43.53;101237.75;2569265;30;138218;-40
2022/03/12 05:40:47;;;;;;;;;;;7.80;65.50;;;6.39;43.27;101241.47;2569938;30;138218;-39
2022/03/12 05:43:15;;;;;;;;;;;7.80;65.90;;;6.35;43.25;101244.72;2571059;30;138005;-41
2022/03/12 05:45:48;;;;;;;;;;;7.70;65.70;;;6.29;44.09;101244.38;2569468;30;136643;-40
2022/03/12 05:48:16;;;;;;;;;;;7.70;66.60;;;6.40;43.42;101248.59;2569962;30;136700;-39
2022/03/12 05:50:48;;;;;;;;;;;7.80;65.70;;;6.36;43.84;101252.66;2569637;30;137850;-40
2022/03/12 05:53:18;;;;;;;;;;;7.70;66.30;;;6.38;44.34;101257.91;2569032;30;137963;-39
2022/03/12 05:55:48;;;;;;;;;;;7.70;66.80;;;6.33;44.75;101245.72;2569489;30;138350;-39
2022/03/12 05:58:17;;;;;;;;;;;7.70;67.40;;;6.28;45.02;101247.25;2569371;30;136758;-40
2022/03/12 06:00:54;;;;;;;;;;;7.70;67.30;;;6.28;45.64;101245.41;2569416;30;138026;-39
2022/03/12 06:03:23;;;;;;;;;;;7.70;68.50;;;6.30;45.17;101237.09;2569910;30;137182;-39
2022/03/12 06:05:59;;;;;;;;;;;7.70;67.90;;;6.29;45.26;101257.06;2570816;30;137365;-39
2022/03/12 06:08:28;;;;;;;;;;;7.60;67.90;;;6.22;46.00;101253.38;2569864;30;137900;-39
2022/03/12 06:10:56;;;;;;;;;;;7.60;68.50;;;6.17;46.34;101254.75;2570089;30;138883;-40
2022/03/12 06:13:29;;;;;;;;;;;7.60;69.10;;;6.21;46.11;101248.97;2568717;30;136975;-40
2022/03/12 06:16:02;;;;;;;;;;;7.60;69.00;;;6.20;46.72;101250.84;2569655;30;137345;-40
2022/03/12 06:18:33;;;;;;;;;;;7.50;70.10;;;6.26;46.73;101247.44;2569515;30;136819;-39
2022/03/12 06:21:03;;;;;;;;;;;7.60;69.40;;;6.28;47.52;101249.97;2569689;30;140291;-40
2022/03/12 06:23:31;;;;;;;;;;;7.60;70.70;;;6.25;47.07;101250.31;2569184;30;137033;-40
2022/03/12 06:25:58;;;;;;;;;;;7.70;70.30;;;6.30;47.73;101259.63;2568237;30;138465;-40
2022/03/12 06:28:27;;;;;;;;;;;7.60;70.70;;;6.33;47.11;101264.69;2569691;30;137176;-40
2022/03/12 06:30:55;;;;;;;;;;;7.70;70.00;;;6.39;47.52;101256.88;2569459;30;138229;-41
2022/03/12 06:33:23;;;;;;;;;;;7.70;70.40;;;6.47;48.45;101264.97;2567127;30;138258;-40
2022/03/12 06:35:52;;;;;;;;;;;7.70;71.60;;;6.50;47.45;101261.94;2568446;30;137548;-40
2022/03/12 06:38:20;;;;;;;;;;;7.80;70.60;;;6.57;47.18;101260.22;2567167;30;137305;-40
2022/03/12 06:40:49;;;;;;;;;;;7.90;70.50;;;6.55;48.89;101264.97;2566855;30;137904;-40
2022/03/12 06:43:19;;;;;;;;;;;7.90;72.10;;;6.59;48.17;101260.03;2570822;30;137084;-41
2022/03/12 06:45:48;;;;;;;;;;;7.90;71.40;;;6.73;49.45;101259.31;2567176;30;138892;-40
2022/03/12 06:48:17;;;;;;;;;;;8.00;72.70;;;6.90;48.71;101261.94;2572415;30;139141;-40
2022/03/12 06:50:45;;;;;;;;;;;8.10;72.00;;;6.98;48.47;101259.19;2567622;30;138327;-40
2022/03/12 06:53:14;;;;;;;;;;;8.20;72.10;;;7.11;48.98;101265.88;2569012;30;137726;-41
2022/03/12 06:55:42;;;;;;;;;;;8.30;72.60;;;7.14;49.42;101268.22;2569301;30;137439;-40
2022/03/12 06:58:11;;;;;;;;;;;8.40;73.20;;;7.16;48.97;101266.19;2569224;30;137953;-40
2022/03/12 07:00:39;;;;;;;;;;;8.40;72.70;;;7.20;49.22;101260.22;2565714;30;139299;-41
2022/03/12 07:03:07;;;;;;;;;;;8.40;72.80;;;7.31;49.89;101264.41;2570278;30;136746;-40
2022/03/12 07:05:35;;;;;;;;;;;8.50;73.50;;;7.31;49.91;101266.28;2570070;30;138290;-40
2022/03/12 07:08:02;;;;;;;;;;;8.60;73.50;;;7.35;50.69;101273.03;2568760;30;136697;-39
2022/03/12 07:10:30;;;;;;;;;;;8.60;74.30;;;7.36;51.44;101263.88;2569361;30;138192;-40
2022/03/12 07:12:57;;;;;;;;;;;8.60;75.10;;;7.40;51.68;101262.47;2570932;30;136937;-40
2022/03/12 07:15:25;;;;;;;;;;;8.70;75.50;;;7.50;51.41;101267.69;2567082;30;137930;-40
2022/03/12 07:17:54;;;;;;;;;;;8.70;75.50;;;7.57;51.53;101276.78;2569339;30;137025;-40
2022/03/12 07:20:22;;;;;;;;;;;8.80;75.50;;;7.64;52.35;101279.63;2568971;30;138391;-41
2022/03/12 07:22:50;;;;;;;;;;;8.90;76.30;;;7.76;53.67;101277.31;2568451;30;136901;-41
2022/03/12 07:25:17;;;;;;;;;;;8.90;77.90;;;7.86;53.30;101275.19;2566962;30;138442;-41
2022/03/12 07:27:45;;;;;;;;;;;9.00;77.30;;;8.04;52.73;101277.56;2568369;30;136972;-41
2022/03/12 07:30:14;;;;;;;;;;;9.10;77.00;;;8.16;52.24;101286.09;2568449;30;138999;-41
2022/03/12 07:32:43;;;;;;;;;;;9.30;76.50;;;8.27;52.09;101273.09;2568425;30;137312;-41
2022/03/12 07:35:13;;;;;;;;;;;9.40;76.90;;;8.46;51.04;101272.53;2567946;30;139069;-41
2022/03/12 07:37:42;;;;;;;;;;;9.50;75.70;;;8.63;52.53;101281.41;2567878;30;136759;-41
2022/03/12 07:40:12;;;;;;;;;;;9.70;77.50;;;8.83;51.64;101288.13;2568369;30;138193;-41
2022/03/12 07:42:39;;;;;;;;;;;9.80;76.60;;;8.92;51.86;101301.44;2568448;30;137268;-41
2022/03/12 07:45:09;;;;;;;;;;;10.00;76.50;;;9.03;51.31;101302.84;2567317;30;137417;-41
2022/03/12 07:47:37;;;;;;;;;;;10.10;76.40;;;9.11;51.35;101310.03;2567990;30;136689;-42
2022/03/12 07:50:06;;;;;;;;;;;10.20;76.10;;;9.13;51.90;101296.22;2567476;30;138940;-41
2022/03/12 07:52:34;;;;;;;;;;;10.30;76.80;;;9.20;52.55;101314.34;2568209;30;137152;-41
2022/03/12 07:55:02;;;;;;;;;;;10.30;77.30;;;9.32;52.56;101320.13;2568691;30;137104;-41
2022/03/12 07:57:30;;;;;;;;;;;10.40;77.40;;;9.38;52.25;101325.84;2569039;30;137271;-41
2022/03/12 07:59:59;;;;;;;;;;;10.50;77.20;;;9.43;52.74;101321.50;2567202;30;137261;-41
2022/03/12 08:02:26;;;;;;;;;;;10.60;77.30;;;9.44;52.39;101323.19;2568718;30;136675;-41
2022/03/12 08:04:54;;;;;;;;;;;10.60;77.10;;;9.49;52.85;101319.88;2568169;30;136683;-41
2022/03/12 08:07:22;;;;;;;;;;;10.60;77.70;;;9.55;52.95;101326.44;2569403;30;136912;-42
2022/03/12 08:09:55;;;;;;;;;;;10.70;77.50;;;9.64;53.20;101328.84;2567363;30;138330;-41
2022/03/12 08:12:24;;;;;;;;;;;10.70;78.20;;;9.71;52.64;101330.78;2566797;30;136811;-41
2022/03/12 08:14:52;;;;;;;;;;;10.80;77.50;;;9.88;53.08;101334.94;2568140;30;139148;-41
2022/03/12 08:17:20;;;;;;;;;;;10.90;78.10;;;9.97;52.26;101340.25;2565839;30;138021;-41
2022/03/12 08:19:48;;;;;;;;;;;11.00;77.10;;;10.03;52.38;101334.00;2567799;30;138361;-41
2022/03/12 08:22:15;;;;;;;;;;;11.10;77.50;;;10.11;53.62;101344.81;2568297;30;137279;-41
2022/03/12 08:24:43;;;;;;;;;;;11.10;78.60;;;10.21;52.72;101348.03;2569029;30;137945;-41
2022/03/12 08:27:14;;;;;;;;;;;11.30;77.70;;;10.26;53.32;101354.75;2568364;30;137244;-41
2022/03/12 08:29:43;;;;;;;;;;;11.30;78.40;;;10.34;53.22;101354.59;2567650;30;138139;-41
2022/03/12 08:32:11;;;;;;;;;;;11.40;78.40;;;10.42;53.16;101359.97;2567959;30;136768;-41
2022/03/12 08:34:41;;;;;;;;;;;11.50;78.40;;;10.48;53.21;101363.78;2567787;30;137996;-42
2022/03/12 08:37:09;;;;;;;;;;;11.60;78.50;;;10.63;53.53;101369.97;2568726;30;136959;-41
2022/03/12 08:39:37;;;;;;;;;;;11.60;78.80;;;10.86;54.19;101368.00;2570050;30;138223;-41
2022/03/12 08:42:05;;;;;;;;;;;11.80;79.90;;;10.96;52.95;101365.75;2568558;30;137232;-41
2022/03/12 08:44:32;;;;;;;;;;;11.90;78.60;;;11.14;53.73;101373.41;2568072;30;138207;-41
2022/03/12 08:47:00;;;;;;;;;;;12.10;80.20;;;11.19;54.49;101372.81;2566709;30;137268;-41
2022/03/12 08:49:28;;;;;;;;;;;12.20;80.40;;;11.25;54.24;101374.72;2569038;30;138399;-42
2022/03/12 08:51:56;;;;;;;;;;;12.20;79.80;;;11.33;53.53;101370.97;2568714;30;138071;-42
2022/03/12 08:54:23;;;;;;;;;;;12.30;79.20;;;11.44;54.72;101375.84;2566875;30;139149;-41
2022/03/12 08:56:50;;;;;;;;;;;12.40;80.40;;;11.48;53.91;101381.75;2568986;30;137139;-42
2022/03/12 08:59:18;;;;;;;;;;;12.50;79.70;;;11.45;53.85;101382.16;2569127;30;138190;-41
2022/03/12 09:01:46;;;;;;;;;;;12.50;79.50;;;11.52;54.91;101383.84;2568047;30;137217;-41
2022/03/12 09:04:15;;;;;;;;;;;12.60;80.40;;;11.57;54.56;101376.94;2568544;30;137413;-41
2022/03/12 09:06:43;;;;;;;;;;;12.60;80.20;;;11.76;54.08;101384.34;2568928;30;137186;-42
2022/03/12 09:09:11;;;;;;;;;;;12.70;80.10;;;11.83;54.37;101370.69;2569045;30;138378;-41
2022/03/12 09:11:39;;;;;;;;;;;12.90;81.20;;;11.93;53.01;101384.81;2568687;30;136854;-41
2022/03/12 09:14:07;;;;;;;;;;;12.90;78.60;;;12.11;53.68;101388.84;2567660;30;138131;-41
2022/03/12 09:16:36;;;;;;;;;;;13.00;79.80;;;12.23;53.50;101387.19;2568875;30;137335;-41
2022/03/12 09:19:04;;;;;;;;;;;13.20;79.30;;;12.30;53.49;101391.81;2569015;30;136816;-41
2022/03/12 09:21:32;;;;;;;;;;;13.20;79.30;;;12.25;53.26;101383.41;2569437;30;138378;-41
2022/03/12 09:24:02;;;;;;;;;;;13.30;78.80;;;12.19;53.90;101391.38;2568142;30;139375;-41
2022/03/12 09:26:30;;;;;;;;;;;13.20;79.70;;;12.09;54.51;101390.94;2568386;30;137188;-41
2022/03/12 09:28:57;;;;;;;;;;;13.20;80.00;;;12.08;55.69;101381.06;2568259;30;137877;-41
2022/03/12 09:31:25;;;;;;;;;;;13.20;81.70;;;11.99;54.53;101385.84;2566744;30;137301;-41
2022/03/12 09:33:52;;;;;;;;;;;13.10;80.00;;;12.02;54.20;101379.16;2569539;30;139000;-41
2022/03/12 09:36:20;;;;;;;;;;;13.10;80.20;;;12.12;54.40;101378.75;2568209;30;137968;-42
2022/03/12 09:38:48;;;;;;;;;;;13.10;80.30;;;12.14;55.59;101388.41;2569564;30;139014;-41
2022/03/12 09:41:15;;;;;;;;;;;13.20;81.80;;;12.21;55.57;101383.81;2569025;30;137948;-41
2022/03/12 09:43:42;;;;;;;;;;;13.20;82.20;;;12.29;57.76;101393.69;2568290;30;138542;-41
2022/03/12 09:46:10;;;;;;;;;;;13.30;84.20;;;12.33;59.23;101391.38;2569014;30;137262;-42
2022/03/12 09:48:39;;;;;;;;;;;13.40;85.30;;;12.40;59.82;101392.22;2567021;30;138641;-41
2022/03/12 09:51:06;;;;;;;;;;;13.40;86.10;;;12.47;59.88;101393.06;2568169;30;137801;-42
2022/03/12 09:53:34;;;;;;;;;;;13.50;86.10;;;12.49;60.15;101390.13;2568145;30;137442;-41
2022/03/12 09:56:02;;;;;;;;;;;13.50;86.40;;;12.50;59.94;101392.66;2568912;30;137858;-41
2022/03/12 09:58:29;;;;;;;;;;;13.60;86.30;;;12.59;60.71;101397.91;2568283;30;138476;-41
2022/03/12 10:00:57;;;;;;;;;;;13.60;86.90;;;12.70;60.12;101389.03;2569000;30;136867;-41
2022/03/12 10:03:28;;;;;;;;;;;13.70;86.80;;;12.84;60.23;101391.75;2568288;30;137426;-41
2022/03/12 10:05:55;;;;;;;;;;;13.80;87.10;;;13.01;59.38;101393.00;2565371;30;138036;-41
2022/03/12 10:08:23;;;;;;;;;;;14.00;86.70;;;13.17;59.05;101399.88;2568657;30;138393;-42
2022/03/12 10:10:50;;;;;;;;;;;14.10;85.80;;;13.29;58.36;101399.19;2569437;30;137007;-41
2022/03/12 10:13:17;;;;;;;;;;;14.20;85.20;;;13.48;58.49;101402.94;2569339;30;137921;-42
2022/03/12 10:15:45;;;;;;;;;;;14.40;85.80;;;13.70;57.10;101391.66;2566498;30;137200;-41
2022/03/12 10:18:13;;;;;;;;;;;;;;;13.84;57.87;101393.28;2568485;30;137326;-42
2022/03/12 10:20:40;;;;;;;;;;;14.70;84.40;;;14.02;56.83;101391.66;2568141;30;136971;-40
2022/03/12 10:23:08;;;;;;;;;;;14.90;84.40;;;14.27;56.94;101394.44;2568683;30;138486;-41
2022/03/12 10:25:38;;;;;;;;;;;15.10;84.30;;;14.51;54.84;101389.19;2567605;30;137656;-41
2022/03/12 10:28:06;;;;;;;;;;;15.30;82.50;;;14.82;55.68;101385.50;2566901;30;138074;-41
2022/03/12 10:30:36;;;;;;;;;;;15.60;84.00;;;14.93;53.57;101385.84;2567893;30;136748;-41
2022/03/12 10:33:05;;;;;;;;;;;15.70;81.50;;;14.97;52.46;101389.81;2567453;30;139320;-41
2022/03/12 10:35:36;;;;;;;;;;;15.80;80.30;;;14.96;51.96;101382.63;2568998;30;137070;-41
2022/03/12 10:38:10;;;;;;;;;;;15.90;79.80;;;15.03;51.76;101380.66;2569463;30;138391;-41
2022/03/12 10:40:38;;;;;;;;;;;15.90;78.70;;;15.11;52.39;101371.25;2568377;30;136648;-41
2022/03/12 10:43:15;;;;;;;;;;;16.00;80.10;;;15.11;53.06;101374.00;2569220;30;138029;-41
2022/03/12 10:45:43;;;;;;;;;;;16.00;80.30;;;15.16;53.27;101385.16;2568178;30;137783;-41
2022/03/12 10:48:12;;;;;;;;;;;16.00;80.50;;;15.15;53.30;101382.66;2568797;30;138290;-41
2022/03/12 10:50:44;;;;;;;;;;;16.00;80.70;;;14.93;51.08;101381.16;2567488;30;137307;-41
2022/03/12 10:53:14;;;;;;;;;;;16.00;78.50;;;14.88;52.35;101385.69;2568424;30;138327;-41
2022/03/12 10:55:44;;;;;;;;;;;15.90;79.80;;;14.86;53.10;101376.84;2567907;30;138213;-41
2022/03/12 10:58:26;;;;;;;;;;;15.90;80.30;;;14.85;53.00;101376.00;2569945;30;138453;-41
2022/03/12 11:00:56;;;;;;;;;;;15.80;80.70;;;14.74;52.99;101380.31;2568214;30;137000;-41
2022/03/12 11:03:27;;;;;;;;;;;15.80;79.30;;;14.54;53.26;101375.00;2567979;30;138105;-41
2022/03/12 11:05:56;;;;;;;;;;;15.70;80.00;;;14.41;53.53;101378.72;2568435;30;137804;-41
2022/03/12 11:08:25;;;;;;;;;;;15.60;80.30;;;14.46;52.89;101383.53;2566535;30;137282;-41
2022/03/12 11:10:59;;;;;;;;;;;15.50;79.80;;;14.65;54.10;101384.41;2569186;30;137248;-42
2022/03/12 11:13:40;;;;;;;;;;;15.60;81.90;;;14.81;52.75;101389.31;2566993;30;139044;-41
2022/03/12 11:16:07;;;;;;;;;;;15.70;80.30;;;14.88;52.06;101385.69;2567772;30;138022;-41
2022/03/12 11:18:35;;;;;;;;;;;15.80;80.00;;;14.82;52.62;101384.69;2568323;30;138469;-41
2022/03/12 11:21:03;;;;;;;;;;;15.80;80.10;;;14.77;52.58;101398.25;2568166;30;137219;-41
2022/03/12 11:23:32;;;;;;;;;;;15.80;80.10;;;14.75;51.73;101393.00;2568567;30;137310;-41